Time;durP1;ratioP1;P1;durP2;ratioP2;P2;SDS_P1;SDS_P2;PMS_P1;PMS_P2;Temp;Humidity;BMP_temperature;BMP_pressure;BME280_temperature;BME280_humidity;BME280_pressure;Samples;Min_cycle;Max_cycle;Signal;HPM_P1;HPM_P2
2023/01/07 00:01:08;;;;;;;41.30;24.13;;;8.90;99.90;;;;;;5035147;28;20086;-67
2023/01/07 00:03:34;;;;;;;55.00;30.73;;;9.00;99.90;;;;;;5036114;28;20041;-67
2023/01/07 00:06:02;;;;;;;116.55;69.03;;;9.00;99.90;;;;;;5052196;28;20166;-67
2023/01/07 00:08:29;;;;;;;187.75;117.05;;;9.10;99.90;;;;;;5035265;28;20119;-67
2023/01/07 00:10:55;;;;;;;212.20;115.63;;;9.10;99.90;;;;;;5035884;28;20045;-67
2023/01/07 00:13:21;;;;;;;204.00;115.38;;;9.20;99.90;;;;;;5034756;28;20171;-67
2023/01/07 00:15:47;;;;;;;204.57;121.13;;;9.20;99.90;;;;;;5019218;28;20120;-67
2023/01/07 00:18:12;;;;;;;237.20;122.32;;;9.30;99.90;;;;;;5036153;28;20045;-67
2023/01/07 00:20:38;;;;;;;156.02;99.22;;;9.30;99.90;;;;;;5068414;28;20053;-67
2023/01/07 00:23:04;;;;;;;134.43;85.85;;;9.40;99.90;;;;;;5035326;28;20391;-67
2023/01/07 00:25:30;;;;;;;121.25;74.90;;;9.50;99.90;;;;;;5035557;28;20048;-67
2023/01/07 00:27:55;;;;;;;117.25;72.88;;;9.50;99.90;;;;;;5052294;28;20049;-67
2023/01/07 00:30:21;;;;;;;73.95;46.45;;;9.50;99.90;;;;;;5035247;28;20048;-67
2023/01/07 00:33:04;;;;;;;94.03;63.78;;;9.60;99.90;;;;;;5053176;28;20039;-67
2023/01/07 00:35:35;;;;;;;49.33;28.45;;;9.60;99.90;;;;;;5052454;28;20195;-67
2023/01/07 00:38:03;;;;;;;40.33;23.67;;;9.60;99.90;;;;;;5035209;28;20045;-67
2023/01/07 00:40:31;;;;;;;34.42;21.45;;;9.70;99.90;;;;;;5035436;28;20055;-67
2023/01/07 00:43:00;;;;;;;42.40;22.17;;;9.70;99.90;;;;;;5034500;28;20482;-67
2023/01/07 00:45:28;;;;;;;38.85;21.75;;;9.80;99.90;;;;;;5034865;28;20072;-67
2023/01/07 00:47:55;;;;;;;40.42;23.70;;;9.80;99.90;;;;;;5052763;28;20048;-67
2023/01/07 00:50:35;;;;;;;38.47;22.33;;;9.80;99.90;;;;;;5050840;28;20049;-67
2023/01/07 00:53:01;;;;;;;33.83;20.50;;;9.90;99.90;;;;;;5035293;28;20393;-67
2023/01/07 00:55:27;;;;;;;32.55;21.90;;;9.90;99.90;;;;;;5034555;28;20041;-67
2023/01/07 00:57:53;;;;;;;28.45;19.23;;;9.90;99.90;;;;;;5034569;28;20075;-67
2023/01/07 01:00:21;;;;;;;34.92;21.90;;;10.00;99.90;;;;;;5067847;28;20040;-67
2023/01/07 01:02:47;;;;;;;31.55;18.67;;;10.00;99.90;;;;;;5067532;28;20449;-67
2023/01/07 01:05:13;;;;;;;25.50;17.65;;;10.00;99.90;;;;;;5052681;28;20096;-67
2023/01/07 01:07:39;;;;;;;28.13;18.20;;;10.10;99.90;;;;;;5034993;28;20402;-67
2023/01/07 01:10:08;;;;;;;26.08;17.20;;;10.10;99.90;;;;;;5051434;28;20033;-67
2023/01/07 01:12:34;;;;;;;31.55;19.98;;;10.20;99.90;;;;;;5052703;28;20082;-67
2023/01/07 01:15:01;;;;;;;27.38;18.65;;;10.20;99.90;;;;;;5051006;28;20047;-67
2023/01/07 01:17:26;;;;;;;27.00;18.35;;;10.20;99.90;;;;;;5034022;28;20036;-67
2023/01/07 01:19:52;;;;;;;31.10;20.20;;;10.30;99.90;;;;;;5052427;28;20045;-67
2023/01/07 01:22:18;;;;;;;31.30;19.92;;;10.30;99.90;;;;;;5034337;28;20498;-67
2023/01/07 01:24:43;;;;;;;28.58;19.02;;;10.30;99.90;;;;;;5033865;28;20056;-67
2023/01/07 01:27:09;;;;;;;28.33;19.73;;;10.30;99.90;;;;;;5034097;28;20048;-67
2023/01/07 01:29:35;;;;;;;27.52;18.73;;;10.30;99.90;;;;;;5034537;28;20047;-67
2023/01/07 01:32:00;;;;;;;29.08;19.05;;;10.30;99.90;;;;;;5033552;28;20086;-67
2023/01/07 01:34:26;;;;;;;30.05;20.02;;;10.30;99.90;;;;;;5034221;28;20040;-67
2023/01/07 01:36:52;;;;;;;26.55;18.65;;;10.30;99.90;;;;;;5067529;28;20127;-67
2023/01/07 01:39:19;;;;;;;29.13;19.75;;;10.40;99.90;;;;;;5033545;28;20424;-67
2023/01/07 01:41:45;;;;;;;31.33;21.25;;;10.30;99.90;;;;;;5034118;28;20083;-67
2023/01/07 01:44:33;;;;;;;28.65;19.17;;;10.40;99.90;;;;;;5051907;28;20128;-67
2023/01/07 01:47:00;;;;;;;26.00;20.13;;;10.40;99.90;;;;;;5066787;28;20432;-67
2023/01/07 01:49:32;;;;;;;27.88;20.00;;;10.40;99.90;;;;;;5051081;28;20103;-67
2023/01/07 01:52:03;;;;;;;26.67;20.13;;;10.40;99.90;;;;;;5049984;28;20079;-67
2023/01/07 01:54:28;;;;;;;27.63;20.98;;;10.40;99.90;;;;;;5051838;28;20095;-67
2023/01/07 01:56:57;;;;;;;25.15;19.08;;;10.40;99.90;;;;;;5051768;28;20037;-67
2023/01/07 01:59:28;;;;;;;25.77;19.75;;;10.50;99.90;;;;;;5033026;28;20041;-67
2023/01/07 02:01:53;;;;;;;23.77;18.35;;;10.50;99.90;;;;;;5051743;28;20033;-67
2023/01/07 02:04:23;;;;;;;24.25;18.13;;;10.50;99.90;;;;;;5051680;28;20436;-67
2023/01/07 02:06:57;;;;;;;23.23;17.83;;;10.50;99.90;;;;;;5033118;28;20083;-68
2023/01/07 02:09:23;;;;;;;23.73;17.88;;;10.50;99.90;;;;;;5033781;28;20040;-67
2023/01/07 02:12:21;;;;;;;21.35;17.42;;;10.50;99.90;;;;;;5037013;28;20041;-67
2023/01/07 02:15:09;;;;;;;24.25;18.70;;;10.50;99.90;;;;;;5017825;28;20049;-67
2023/01/07 02:17:41;;;;;;;20.13;16.40;;;10.50;99.90;;;;;;5055807;28;20470;-68
2023/01/07 02:20:28;;;;;;;21.60;18.30;;;10.50;99.90;;;;;;5055138;28;20041;-67
2023/01/07 02:23:00;;;;;;;23.15;17.92;;;10.50;99.90;;;;;;5071219;28;20512;-67
2023/01/07 02:25:50;;;;;;;22.48;17.67;;;10.50;99.90;;;;;;5037469;28;20056;-67
2023/01/07 02:28:45;;;;;;;23.33;17.77;;;10.50;99.90;;;;;;5020369;28;20441;-67
2023/01/07 02:31:31;;;;;;;23.63;18.08;;;10.50;99.90;;;;;;5037583;28;20045;-67
2023/01/07 02:34:24;;;;;;;20.38;17.23;;;10.50;99.90;;;;;;5054491;28;20222;-67
2023/01/07 02:37:10;;;;;;;20.83;17.58;;;10.50;99.90;;;;;;5055678;28;20040;-67
2023/01/07 02:39:54;;;;;;;24.08;16.95;;;10.50;99.90;;;;;;5037729;28;20049;-67
2023/01/07 02:42:41;;;;;;;22.03;18.70;;;10.50;99.90;;;;;;5054521;28;20444;-67
2023/01/07 02:45:11;;;;;;;24.40;18.42;;;10.50;99.90;;;;;;5055233;28;20290;-67
2023/01/07 02:47:38;;;;;;;21.83;17.52;;;10.40;99.90;;;;;;5037576;28;20045;-67
2023/01/07 02:50:06;;;;;;;21.48;16.55;;;10.50;99.90;;;;;;5069789;28;20532;-67
2023/01/07 02:52:33;;;;;;;21.92;16.80;;;10.50;99.90;;;;;;5037388;28;20397;-67
2023/01/07 02:55:10;;;;;;;21.92;17.80;;;10.50;99.90;;;;;;5053549;28;20041;-67
2023/01/07 02:58:04;;;;;;;22.13;17.23;;;10.50;99.90;;;;;;5070672;28;20056;-67
2023/01/07 03:00:33;;;;;;;21.05;16.55;;;10.50;99.90;;;;;;5037478;28;20481;-67
2023/01/07 03:03:11;;;;;;;22.30;18.08;;;10.50;99.90;;;;;;5036272;28;20044;-68
2023/01/07 03:05:45;;;;;;;20.92;16.95;;;10.50;99.90;;;;;;5055125;28;20048;-67
2023/01/07 03:08:49;;;;;;;21.13;16.80;;;10.50;99.90;;;;;;5036839;28;20087;-67
2023/01/07 03:11:16;;;;;;;19.23;14.82;;;10.50;99.90;;;;;;5019943;28;20047;-67
2023/01/07 03:14:12;;;;;;;21.63;15.82;;;10.50;99.90;;;;;;5036708;28;20037;-67
2023/01/07 03:16:42;;;;;;;21.23;15.48;;;10.50;99.90;;;;;;5036685;28;20493;-67
2023/01/07 03:19:10;;;;;;;18.30;14.95;;;10.50;99.90;;;;;;5054690;28;20049;-67
2023/01/07 03:21:36;;;;;;;18.15;14.70;;;10.50;99.90;;;;;;5036986;28;20040;-67
2023/01/07 03:24:05;;;;;;;19.23;15.23;;;10.50;99.90;;;;;;5053491;28;20131;-67
2023/01/07 03:26:40;;;;;;;18.00;13.43;;;10.50;99.90;;;;;;5069784;28;20053;-67
2023/01/07 03:29:09;;;;;;;17.98;13.93;;;10.50;99.90;;;;;;5054550;28;20048;-67
2023/01/07 03:31:37;;;;;;;17.52;14.70;;;10.50;99.90;;;;;;5036121;28;20076;-67
2023/01/07 03:34:05;;;;;;;16.77;13.52;;;10.50;99.90;;;;;;5036487;28;20516;-67
2023/01/07 03:36:38;;;;;;;22.98;13.80;;;10.50;99.90;;;;;;5069743;28;20040;-67
2023/01/07 03:39:07;;;;;;;19.02;14.15;;;10.50;99.90;;;;;;5035225;28;20075;-67
2023/01/07 03:44:17;;;;;;;16.20;13.88;;;10.50;99.90;;;;;;5053333;28;20052;-67
2023/01/07 03:46:43;;;;;;;19.92;15.02;;;10.50;99.90;;;;;;5069709;28;20049;-67
2023/01/07 03:49:08;;;;;;;18.02;14.25;;;10.50;99.90;;;;;;5053917;28;20037;-67
2023/01/07 03:51:34;;;;;;;16.30;13.90;;;10.50;99.90;;;;;;5053604;28;20508;-67
2023/01/07 03:54:00;;;;;;;18.00;12.63;;;10.50;99.90;;;;;;5035951;28;20099;-67
2023/01/07 03:56:25;;;;;;;18.67;14.05;;;10.50;99.90;;;;;;5036230;28;20045;-67
2023/01/07 03:58:51;;;;;;;15.95;13.05;;;10.50;99.90;;;;;;5053060;28;20041;-67
2023/01/07 04:01:17;;;;;;;17.55;13.93;;;10.50;99.90;;;;;;5052591;28;20090;-67
2023/01/07 04:03:42;;;;;;;17.10;12.57;;;10.50;99.90;;;;;;5053686;28;20033;-67
2023/01/07 04:06:08;;;;;;;18.33;13.90;;;10.50;99.90;;;;;;5035309;28;20045;-67
2023/01/07 04:08:36;;;;;;;19.10;14.13;;;10.50;99.90;;;;;;5053798;28;20505;-67
2023/01/07 04:11:02;;;;;;;17.08;14.27;;;10.50;99.90;;;;;;5035752;28;20057;-67
2023/01/07 04:13:27;;;;;;;18.45;13.50;;;10.50;99.90;;;;;;5068170;28;20041;-67
2023/01/07 04:15:53;;;;;;;18.85;14.30;;;10.40;99.90;;;;;;5035774;28;20037;-67
2023/01/07 04:18:18;;;;;;;18.17;13.30;;;10.50;99.90;;;;;;5035584;28;20048;-67
2023/01/07 04:20:47;;;;;;;15.63;12.65;;;10.50;99.90;;;;;;5035056;28;20118;-67
2023/01/07 04:23:14;;;;;;;18.70;14.23;;;10.40;99.90;;;;;;5035406;28;20041;-67
2023/01/07 04:25:40;;;;;;;17.38;13.27;;;10.40;99.90;;;;;;5069119;28;20037;-67
2023/01/07 04:28:06;;;;;;;18.48;14.40;;;10.40;99.90;;;;;;5050855;28;20456;-67
2023/01/07 04:30:32;;;;;;;18.20;14.45;;;10.30;99.90;;;;;;5035509;28;20091;-67
2023/01/07 04:32:59;;;;;;;20.83;14.88;;;10.40;99.90;;;;;;5034841;28;20099;-67
2023/01/07 04:35:24;;;;;;;17.52;14.15;;;10.30;99.90;;;;;;5034516;28;20037;-67
2023/01/07 04:37:50;;;;;;;19.75;14.32;;;10.30;99.90;;;;;;5035513;28;20043;-67
2023/01/07 04:40:16;;;;;;;18.27;15.13;;;10.30;99.90;;;;;;5035096;28;20102;-67
2023/01/07 04:42:41;;;;;;;20.73;15.45;;;10.40;99.90;;;;;;5034307;28;20041;-67
2023/01/07 04:45:07;;;;;;;23.02;16.88;;;10.30;99.90;;;;;;5035030;28;20405;-67
2023/01/07 04:47:33;;;;;;;19.40;14.38;;;10.30;99.90;;;;;;5034918;28;20045;-67
2023/01/07 04:49:59;;;;;;;17.58;14.57;;;10.30;99.90;;;;;;5052630;28;20037;-67
2023/01/07 04:52:24;;;;;;;20.83;15.55;;;10.30;99.90;;;;;;5068263;28;20045;-67
2023/01/07 04:54:50;;;;;;;19.38;15.77;;;10.30;99.90;;;;;;5034053;28;20090;-67
2023/01/07 04:57:16;;;;;;;21.15;15.88;;;10.30;99.90;;;;;;5034673;28;20033;-67
2023/01/07 04:59:41;;;;;;;19.45;14.77;;;10.20;99.90;;;;;;5052606;28;20120;-67
2023/01/07 05:02:07;;;;;;;19.38;14.52;;;10.20;99.90;;;;;;5034104;28;20477;-67
2023/01/07 05:04:33;;;;;;;20.02;15.93;;;10.20;99.90;;;;;;5034935;28;20037;-67
2023/01/07 05:06:58;;;;;;;23.13;15.43;;;10.20;99.90;;;;;;5034399;28;20494;-66
2023/01/07 05:09:24;;;;;;;21.67;15.52;;;10.20;99.90;;;;;;5034038;28;20418;-66
2023/01/07 05:11:50;;;;;;;19.45;15.20;;;10.20;99.90;;;;;;5043608;28;20503;-67
2023/01/07 05:49:45;;;;;;;25.58;16.33;;;10.10;99.90;;;;;;5050269;28;20094;-66
2023/01/07 05:52:11;;;;;;;21.65;15.75;;;10.00;99.90;;;;;;5068509;28;20044;-66
2023/01/07 05:54:37;;;;;;;21.98;15.55;;;10.00;99.90;;;;;;5071899;28;20041;-66
2023/01/07 05:57:02;;;;;;;22.08;15.88;;;10.00;99.90;;;;;;5055199;28;20101;-66
2023/01/07 05:59:28;;;;;;;20.95;15.73;;;9.90;99.90;;;;;;5070063;28;20095;-67
2023/01/07 06:01:54;;;;;;;21.70;15.10;;;9.90;99.90;;;;;;5037651;28;20037;-67
2023/01/07 06:04:20;;;;;;;19.23;13.98;;;9.90;99.90;;;;;;5070522;28;20477;-67
2023/01/07 06:06:45;;;;;;;21.95;14.82;;;9.90;99.90;;;;;;5054726;28;20045;-67
2023/01/07 06:09:11;;;;;;;20.88;13.75;;;9.80;99.90;;;;;;5051783;28;20116;-67
2023/01/07 06:11:37;;;;;;;20.02;14.95;;;9.80;99.90;;;;;;5034381;28;20041;-67
2023/01/07 06:14:02;;;;;;;20.38;14.80;;;9.90;99.90;;;;;;5033164;28;20367;-67
2023/01/07 06:16:28;;;;;;;18.30;13.20;;;9.80;99.90;;;;;;5051774;28;20968;-67
2023/01/07 06:18:53;;;;;;;20.27;14.73;;;9.80;99.90;;;;;;5051530;28;20037;-67
2023/01/07 06:21:20;;;;;;;21.85;14.68;;;9.70;99.90;;;;;;5030303;28;20036;-67
2023/01/07 06:23:46;;;;;;;22.48;15.02;;;9.70;99.90;;;;;;5071791;28;20405;-67
2023/01/07 06:26:11;;;;;;;18.75;13.65;;;9.70;99.90;;;;;;5070042;28;20036;-67
2023/01/07 06:28:37;;;;;;;17.90;14.00;;;9.70;99.90;;;;;;5072014;28;20037;-67
2023/01/07 06:31:03;;;;;;;18.30;13.55;;;9.70;99.90;;;;;;5071665;28;20036;-67
2023/01/07 06:33:28;;;;;;;20.83;14.15;;;9.60;99.90;;;;;;5052853;28;20508;-67
2023/01/07 06:35:54;;;;;;;17.63;13.32;;;9.60;99.90;;;;;;5045189;28;20397;-67
2023/01/07 06:38:20;;;;;;;18.60;14.13;;;9.60;99.90;;;;;;5071498;28;20437;-67
2023/01/07 06:40:45;;;;;;;20.55;13.10;;;9.60;99.90;;;;;;5069801;28;20044;-67
2023/01/07 06:43:11;;;;;;;18.58;12.85;;;9.60;99.90;;;;;;5070299;28;20492;-67
2023/01/07 06:45:37;;;;;;;17.75;13.05;;;9.60;99.90;;;;;;5070774;28;20399;-67
2023/01/07 06:48:02;;;;;;;16.45;12.63;;;9.60;99.90;;;;;;5070405;28;20047;-67
2023/01/07 06:50:28;;;;;;;18.45;12.98;;;9.60;99.90;;;;;;5061204;28;20054;-67
2023/01/07 06:52:55;;;;;;;16.67;12.70;;;9.60;99.90;;;;;;5070169;28;20102;-67
2023/01/07 06:55:21;;;;;;;23.58;13.43;;;9.60;99.90;;;;;;5069755;28;20102;-67
2023/01/07 06:57:47;;;;;;;15.52;11.77;;;9.60;99.90;;;;;;5056934;28;20041;-67
2023/01/07 07:00:13;;;;;;;16.25;12.07;;;9.60;99.90;;;;;;5057340;28;20127;-67
2023/01/07 07:02:38;;;;;;;18.73;13.05;;;9.60;99.90;;;;;;5056580;28;20076;-67
2023/01/07 07:05:04;;;;;;;19.08;13.48;;;9.60;99.90;;;;;;5073605;28;20076;-67
2023/01/07 07:07:30;;;;;;;20.02;13.18;;;9.60;99.90;;;;;;5074606;28;20045;-67
2023/01/07 07:09:56;;;;;;;18.30;13.15;;;9.60;99.90;;;;;;5072856;28;20028;-67
2023/01/07 07:12:21;;;;;;;20.10;13.55;;;9.60;99.90;;;;;;5073454;28;20067;-67
2023/01/07 07:14:47;;;;;;;19.67;11.73;;;9.60;99.90;;;;;;5057106;28;20037;-67
2023/01/07 07:17:13;;;;;;;17.13;12.55;;;9.60;99.90;;;;;;5073807;28;20474;-67
2023/01/07 07:19:38;;;;;;;19.10;13.25;;;9.60;99.90;;;;;;5073970;28;20495;-67
2023/01/07 07:22:04;;;;;;;16.33;11.02;;;9.60;99.90;;;;;;5071060;28;20390;-67
2023/01/07 07:24:30;;;;;;;16.33;10.27;;;9.60;99.90;;;;;;5073027;28;20500;-67
2023/01/07 07:26:55;;;;;;;16.40;11.52;;;9.60;99.90;;;;;;5073175;28;20044;-67
2023/01/07 07:29:21;;;;;;;15.07;11.48;;;9.60;99.90;;;;;;5039162;28;20094;-67
2023/01/07 07:31:47;;;;;;;16.70;11.68;;;9.60;99.90;;;;;;5074153;28;20033;-67
2023/01/07 07:34:12;;;;;;;19.42;12.23;;;9.60;99.90;;;;;;5073194;28;20036;-67
2023/01/07 07:36:38;;;;;;;16.27;11.68;;;9.60;99.90;;;;;;5056694;28;20046;-67
2023/01/07 07:39:04;;;;;;;16.42;11.75;;;9.60;99.90;;;;;;5073005;28;20040;-67
2023/01/07 07:41:30;;;;;;;15.02;11.60;;;9.60;99.90;;;;;;5073571;28;20041;-67
2023/01/07 07:43:56;;;;;;;16.17;11.00;;;9.60;99.90;;;;;;5072382;28;20039;-67
2023/01/07 07:46:21;;;;;;;13.93;10.32;;;9.60;99.90;;;;;;5073448;28;20451;-67
2023/01/07 07:48:48;;;;;;;14.18;9.80;;;9.60;99.90;;;;;;5072777;28;20124;-67
2023/01/07 07:51:14;;;;;;;14.20;9.43;;;9.60;99.90;;;;;;5055620;28;20123;-67
2023/01/07 07:53:40;;;;;;;14.43;9.50;;;9.60;99.90;;;;;;5056338;28;20120;-67
2023/01/07 07:56:07;;;;;;;16.50;10.93;;;9.50;99.90;;;;;;5073885;28;20044;-67
2023/01/07 07:58:32;;;;;;;14.07;10.48;;;9.50;99.90;;;;;;5072231;28;20045;-67
2023/01/07 08:00:58;;;;;;;13.15;9.63;;;9.50;99.90;;;;;;5063625;28;20405;-67
2023/01/07 08:03:24;;;;;;;15.02;9.75;;;9.60;99.90;;;;;;5072650;28;20086;-67
2023/01/07 08:05:49;;;;;;;13.07;10.32;;;9.50;99.90;;;;;;5072813;28;20115;-67
2023/01/07 08:08:15;;;;;;;15.00;9.35;;;9.50;99.90;;;;;;5071423;28;20477;-67
2023/01/07 08:10:41;;;;;;;14.15;9.80;;;9.60;99.90;;;;;;5073189;28;20134;-67
2023/01/07 08:13:08;;;;;;;12.05;8.90;;;9.60;99.90;;;;;;5070145;28;20047;-67
2023/01/07 08:15:34;;;;;;;15.02;9.48;;;9.60;99.90;;;;;;5072474;28;20565;-67
2023/01/07 08:18:03;;;;;;;17.15;10.02;;;9.60;99.90;;;;;;5071158;28;20119;-67
2023/01/07 08:20:30;;;;;;;12.10;8.27;;;9.60;99.90;;;;;;5055416;28;20081;-67
2023/01/07 08:23:00;;;;;;;13.68;8.77;;;9.70;99.90;;;;;;5055275;28;20051;-67
2023/01/07 08:25:28;;;;;;;13.23;8.05;;;9.60;99.90;;;;;;5073226;28;20037;-66
2023/01/07 08:27:54;;;;;;;13.90;7.85;;;9.60;99.90;;;;;;5072577;28;20032;-66
2023/01/07 08:30:20;;;;;;;11.45;8.15;;;9.60;99.90;;;;;;5055239;28;20036;-67
2023/01/07 08:32:46;;;;;;;13.63;8.30;;;9.60;99.90;;;;;;5038117;28;20037;-66
2023/01/07 08:35:12;;;;;;;10.68;7.65;;;9.60;99.90;;;;;;5038745;28;20436;-66
2023/01/07 08:37:38;;;;;;;11.68;7.90;;;9.60;99.90;;;;;;5056535;28;20063;-67
2023/01/07 08:40:04;;;;;;;15.38;8.30;;;9.60;99.90;;;;;;5072347;28;20048;-67
2023/01/07 08:42:30;;;;;;;12.73;8.20;;;9.50;99.90;;;;;;5072973;28;20492;-67
2023/01/07 08:44:56;;;;;;;13.68;8.43;;;9.50;99.90;;;;;;5064631;28;20079;-67
2023/01/07 08:47:28;;;;;;;13.90;9.07;;;9.50;99.90;;;;;;5066785;28;20449;-67
2023/01/07 08:49:54;;;;;;;12.00;8.13;;;9.50;99.90;;;;;;5057758;28;20084;-67
2023/01/07 08:52:21;;;;;;;15.73;8.13;;;9.50;99.90;;;;;;5051726;28;20048;-67
2023/01/07 08:54:48;;;;;;;13.05;8.15;;;9.50;99.90;;;;;;5054362;28;20390;-67
2023/01/07 08:57:15;;;;;;;10.60;6.55;;;9.50;99.90;;;;;;5051462;28;20056;-66
2023/01/07 08:59:42;;;;;;;12.27;7.88;;;9.50;99.90;;;;;;5053006;28;20054;-67
2023/01/07 09:02:16;;;;;;;12.10;7.88;;;9.50;99.90;;;;;;5068887;28;20048;-67
2023/01/07 09:04:42;;;;;;;12.35;7.78;;;9.50;99.90;;;;;;5053472;28;20045;-66
2023/01/07 09:07:09;;;;;;;11.57;6.88;;;9.50;99.90;;;;;;5052213;28;20102;-67
2023/01/07 09:09:35;;;;;;;10.18;6.68;;;9.50;99.90;;;;;;5051374;28;20115;-66
2023/01/07 09:12:02;;;;;;;13.93;7.30;;;9.50;99.90;;;;;;5053262;28;20051;-66
2023/01/07 09:14:27;;;;;;;11.13;6.55;;;9.50;99.90;;;;;;5068520;28;20413;-66
2023/01/07 09:16:53;;;;;;;11.90;6.90;;;9.50;99.90;;;;;;5063581;28;20049;-66
2023/01/07 09:19:19;;;;;;;11.57;6.80;;;9.50;99.90;;;;;;5032160;28;20044;-66
2023/01/07 09:21:44;;;;;;;11.13;6.47;;;9.50;99.90;;;;;;5031994;28;20049;-66
2023/01/07 09:24:10;;;;;;;9.57;6.35;;;9.50;99.90;;;;;;5031559;28;20040;-66
2023/01/07 09:26:36;;;;;;;9.63;5.85;;;9.50;99.90;;;;;;5049912;28;20520;-66
2023/01/07 09:29:01;;;;;;;10.00;6.15;;;9.50;99.90;;;;;;5069415;28;20047;-66
2023/01/07 09:31:27;;;;;;;11.00;6.90;;;9.50;99.90;;;;;;5050644;28;20496;-66
2023/01/07 09:33:52;;;;;;;9.60;5.47;;;9.50;99.90;;;;;;5069688;28;20121;-67
2023/01/07 09:36:18;;;;;;;8.35;5.53;;;9.50;99.90;;;;;;5068940;28;20032;-67
2023/01/07 09:38:44;;;;;;;9.50;5.82;;;9.50;99.90;;;;;;5069811;28;20119;-66
2023/01/07 09:41:28;;;;;;;8.75;5.32;;;9.50;99.90;;;;;;5051506;28;20374;-67
2023/01/07 09:44:04;;;;;;;8.73;5.20;;;9.50;99.90;;;;;;5064733;28;20040;-66
2023/01/07 09:46:30;;;;;;;8.52;5.10;;;9.60;99.90;;;;;;5038337;28;20040;-66
2023/01/07 09:49:01;;;;;;;9.18;4.88;;;9.60;99.90;;;;;;5068454;28;20067;-66
2023/01/07 09:51:35;;;;;;;7.93;4.43;;;9.60;99.90;;;;;;5068890;28;20040;-66
2023/01/07 09:54:04;;;;;;;7.97;4.38;;;9.60;99.90;;;;;;5069279;28;20066;-66
2023/01/07 09:56:33;;;;;;;8.32;4.22;;;9.60;99.90;;;;;;5065441;28;20048;-67
2023/01/07 09:59:00;;;;;;;9.93;4.45;;;9.60;99.90;;;;;;5051694;28;20560;-67
2023/01/07 10:01:26;;;;;;;7.47;4.07;;;9.60;99.90;;;;;;5051502;28;20123;-67
2023/01/07 10:04:13;;;;;;;6.72;3.78;;;9.70;99.90;;;;;;5068332;28;20136;-67
2023/01/07 10:06:59;;;;;;;6.35;3.53;;;9.60;99.90;;;;;;5057868;28;20114;-67
2023/01/07 10:09:39;;;;;;;;;;;9.70;99.90;;;;;;5061642;28;20097;-67
2023/01/07 10:12:54;;;;;;;6.38;3.03;;;9.70;99.90;;;;;;5067545;28;19920;-67
2023/01/07 10:15:44;;;;;;;6.93;3.15;;;9.70;99.90;;;;;;5013494;28;20088;-67
2023/01/07 10:18:19;;;;;;;7.85;3.55;;;9.80;99.90;;;;;;5068915;28;20611;-67
2023/01/07 10:21:00;;;;;;;;;;;9.80;99.90;;;;;;5052698;28;20036;-67
2023/01/07 10:23:31;;;;;;;5.70;2.90;;;9.80;99.90;;;;;;5058516;28;19917;-67
2023/01/07 10:26:00;;;;;;;6.70;3.35;;;9.80;99.90;;;;;;5050616;28;20139;-67
2023/01/07 10:28:39;;;;;;;5.72;2.78;;;9.80;99.90;;;;;;5051038;28;20076;-67
2023/01/07 10:31:18;;;;;;;6.22;3.17;;;9.80;99.90;;;;;;5069299;28;20480;-67
2023/01/07 10:33:46;;;;;;;7.32;3.17;;;9.80;99.90;;;;;;5034226;28;20125;-66
2023/01/07 10:36:30;;;;;;;5.03;3.17;;;9.80;99.90;;;;;;5050714;28;20045;-67
2023/01/07 10:39:11;;;;;;;5.43;3.50;;;9.80;99.90;;;;;;5038018;28;20079;-67
2023/01/07 10:41:48;;;;;;;9.00;3.35;;;9.80;99.90;;;;;;5054839;28;20051;-66
2023/01/07 10:44:28;;;;;;;6.22;3.50;;;9.80;99.90;;;;;;5071709;28;20405;-67
2023/01/07 10:47:25;;;;;;;7.32;3.25;;;9.80;99.90;;;;;;5057459;28;20155;-67
2023/01/07 10:50:06;;;;;;;5.82;3.00;;;9.90;99.90;;;;;;5037687;28;20041;-66
2023/01/07 10:53:02;;;;;;;8.20;3.63;;;9.90;99.90;;;;;;5075483;28;20094;-67
2023/01/07 10:56:19;;;;;;;6.95;3.15;;;9.90;99.90;;;;;;5073027;28;20405;-66
2023/01/07 10:58:47;;;;;;;6.72;3.33;;;9.90;99.90;;;;;;5048592;28;20436;-66
2023/01/07 11:01:29;;;;;;;6.82;2.53;;;10.00;99.90;;;;;;5059479;28;20059;-66
2023/01/07 11:03:57;;;;;;;6.25;2.90;;;10.00;99.90;;;;;;5075239;28;20098;-66
2023/01/07 11:06:44;;;;;;;6.20;3.35;;;10.00;99.90;;;;;;5060919;28;20104;-66
2023/01/07 11:09:18;;;;;;;7.53;2.95;;;10.00;99.90;;;;;;5072226;28;20035;-66
2023/01/07 11:11:45;;;;;;;8.27;2.60;;;10.10;99.90;;;;;;5054726;28;20526;-66
2023/01/07 11:14:18;;;;;;;7.05;3.15;;;10.20;99.90;;;;;;5063881;28;20111;-66
2023/01/07 11:16:53;;;;;;;6.63;3.03;;;10.30;99.90;;;;;;5074133;28;20049;-66
2023/01/07 11:19:20;;;;;;;7.07;2.92;;;10.30;99.90;;;;;;5073797;28;20050;-66
2023/01/07 11:21:51;;;;;;;9.35;2.65;;;10.40;99.90;;;;;;5073618;28;20123;-66
2023/01/07 11:24:29;;;;;;;7.13;2.05;;;10.50;99.90;;;;;;5040865;28;20032;-67
2023/01/07 11:27:15;;;;;;;4.80;2.40;;;10.50;99.90;;;;;;5056588;28;20041;-66
2023/01/07 11:29:57;;;;;;;6.70;2.67;;;10.50;99.90;;;;;;5057041;28;20040;-66
2023/01/07 11:32:26;;;;;;;8.90;2.65;;;10.60;99.90;;;;;;5053171;28;20387;-67
2023/01/07 11:34:55;;;;;;;5.10;2.30;;;10.60;99.90;;;;;;5071575;28;20033;-67
2023/01/07 11:37:41;;;;;;;4.90;2.45;;;10.60;99.90;;;;;;5072942;28;20041;-66
2023/01/07 11:40:18;;;;;;;5.13;2.20;;;10.60;99.90;;;;;;5073408;28;20041;-67
2023/01/07 11:42:57;;;;;;;4.85;2.10;;;10.70;99.90;;;;;;5059097;28;20040;-67
2023/01/07 11:45:35;;;;;;;6.70;2.33;;;10.70;99.90;;;;;;5068616;28;20048;-67
2023/01/07 11:48:08;;;;;;;5.45;1.77;;;10.70;99.90;;;;;;5059333;28;20167;-67
2023/01/07 11:50:39;;;;;;;5.47;2.20;;;10.70;99.90;;;;;;5073874;28;20111;-67
2023/01/07 11:53:10;;;;;;;4.40;2.10;;;10.70;99.90;;;;;;5073989;28;20139;-66
2023/01/07 11:55:36;;;;;;;4.55;1.92;;;10.70;99.90;;;;;;5074057;28;20497;-66
2023/01/07 11:58:01;;;;;;;5.07;2.30;;;10.60;99.90;;;;;;5066761;28;20080;-67
2023/01/07 12:00:30;;;;;;;5.32;2.30;;;10.60;99.90;;;;;;5064344;28;20068;-67
2023/01/07 12:03:09;;;;;;;5.95;1.70;;;10.60;99.90;;;;;;5057066;28;20036;-67
2023/01/07 12:05:35;;;;;;;3.92;1.83;;;10.60;99.90;;;;;;5069186;28;20489;-67
2023/01/07 12:08:01;;;;;;;4.53;2.00;;;10.60;99.90;;;;;;5066647;28;20036;-67
2023/01/07 12:10:33;;;;;;;6.65;1.70;;;10.50;99.90;;;;;;5069885;28;20397;-67
2023/01/07 12:13:01;;;;;;;4.22;1.88;;;10.60;99.90;;;;;;5056122;28;20032;-67
2023/01/07 12:15:30;;;;;;;4.88;1.45;;;10.50;99.90;;;;;;5056932;28;20465;-66
2023/01/07 12:18:15;;;;;;;3.13;1.48;;;10.50;99.90;;;;;;5056285;28;20102;-66
2023/01/07 12:20:53;;;;;;;3.27;1.40;;;10.50;99.90;;;;;;5043084;28;20041;-66
2023/01/07 12:23:33;;;;;;;3.75;1.60;;;10.60;99.90;;;;;;5072028;28;20516;-66
2023/01/07 12:26:05;;;;;;;3.38;1.58;;;10.60;99.90;;;;;;5057942;28;20045;-66
2023/01/07 12:29:00;;;;;;;3.38;1.40;;;10.60;99.90;;;;;;5070160;28;20127;-67
2023/01/07 12:31:34;;;;;;;6.00;1.77;;;10.50;99.90;;;;;;5066501;28;20064;-65
2023/01/07 12:34:04;;;;;;;3.45;1.50;;;10.60;99.90;;;;;;5069910;28;20781;-67
2023/01/07 12:36:53;;;;;;;4.22;1.80;;;10.60;99.90;;;;;;5070279;28;20044;-67
2023/01/07 12:39:29;;;;;;;2.90;1.52;;;10.70;99.90;;;;;;5048917;28;20053;-67
2023/01/07 12:42:02;;;;;;;2.90;1.13;;;10.70;99.90;;;;;;5062193;28;20052;-67
2023/01/07 12:44:28;;;;;;;2.30;0.85;;;10.80;99.90;;;;;;5069499;28;20123;-66
2023/01/07 12:47:02;;;;;;;3.20;1.00;;;10.80;99.90;;;;;;5067182;28;20044;-66
2023/01/07 12:49:33;;;;;;;3.60;1.38;;;10.80;99.90;;;;;;5060744;28;20088;-66
2023/01/07 12:52:10;;;;;;;3.83;1.40;;;10.80;99.90;;;;;;5054734;28;20052;-66
2023/01/07 12:54:39;;;;;;;4.20;1.45;;;10.90;99.90;;;;;;5054760;28;20481;-65
2023/01/07 12:57:16;;;;;;;3.25;1.30;;;10.90;99.90;;;;;;5059449;28;20063;-66
2023/01/07 13:00:00;;;;;;;3.35;1.42;;;10.90;99.90;;;;;;5064394;28;20047;-66
2023/01/07 13:02:39;;;;;;;3.13;1.20;;;10.90;99.90;;;;;;5057854;28;20367;-66
2023/01/07 13:05:20;;;;;;;3.75;1.27;;;10.90;99.90;;;;;;5051518;28;20064;-66
2023/01/07 13:07:55;;;;;;;2.85;1.15;;;10.90;99.90;;;;;;5046482;28;20048;-66
2023/01/07 13:10:46;;;;;;;2.70;1.10;;;10.90;99.90;;;;;;5058784;28;20051;-66
2023/01/07 13:13:36;;;;;;;2.92;1.25;;;10.90;99.90;;;;;;5050032;28;20043;-66
2023/01/07 13:16:03;;;;;;;2.95;1.30;;;10.90;99.90;;;;;;5058191;28;20038;-65
2023/01/07 13:18:29;;;;;;;4.32;1.30;;;10.90;99.90;;;;;;5069998;28;20512;-66
2023/01/07 13:21:13;;;;;;;3.00;1.20;;;10.90;99.90;;;;;;5053050;28;20041;-66
2023/01/07 13:24:08;;;;;;;2.80;1.20;;;10.90;99.90;;;;;;5069254;28;20044;-66
2023/01/07 13:26:50;;;;;;;3.10;1.33;;;10.90;99.90;;;;;;5006902;28;20494;-66
2023/01/07 13:29:36;;;;;;;3.22;1.33;;;10.90;99.90;;;;;;5066218;28;20036;-66
2023/01/07 13:32:21;;;;;;;3.30;1.35;;;10.80;99.90;;;;;;5059955;28;20033;-66
2023/01/07 13:35:11;;;;;;;;;;;10.80;99.90;;;;;;5045277;28;20425;-66